Time;durP1;ratioP1;P1;durP2;ratioP2;P2;SDS_P1;SDS_P2;PMS_P1;PMS_P2;Temp;Humidity;BMP_temperature;BMP_pressure;BME280_temperature;BME280_humidity;BME280_pressure;Samples;Min_cycle;Max_cycle;Signal;HPM_P1;HPM_P2
2024/01/27 00:00:27;;;;;;;94.30;73.10;;;;;;;;;;10095417;28;20050;-72
2024/01/27 00:05:19;;;;;;;98.25;71.10;;;;;;;;;;10106745;28;20056;-71
2024/01/27 00:10:10;;;;;;;88.20;65.85;;;;;;;;;;10108611;28;20430;-71
2024/01/27 00:15:03;;;;;;;91.10;67.43;;;;;;;;;;10090633;28;20042;-72
2024/01/27 00:19:55;;;;;;;83.22;60.72;;;;;;;;;;10082079;28;20396;-72
2024/01/27 00:24:47;;;;;;;78.22;57.42;;;;;;;;;;10084516;28;20057;-72
2024/01/27 00:29:39;;;;;;;53.95;42.47;;;;;;;;;;10105280;28;20041;-72
2024/01/27 00:34:31;;;;;;;54.35;44.08;;;;;;;;;;10104739;28;20041;-72
2024/01/27 00:39:23;;;;;;;55.20;42.50;;;;;;;;;;10102287;28;20057;-72
2024/01/27 00:44:15;;;;;;;63.35;46.85;;;;;;;;;;10103498;28;20476;-72
2024/01/27 00:49:07;;;;;;;65.28;49.13;;;;;;;;;;10104164;28;20045;-72
2024/01/27 00:53:59;;;;;;;66.28;46.25;;;;;;;;;;10104387;28;20041;-71
2024/01/27 00:58:51;;;;;;;57.90;45.58;;;;;;;;;;10104137;28;20051;-72
2024/01/27 01:03:43;;;;;;;62.05;46.83;;;;;;;;;;10103306;28;20053;-71
2024/01/27 01:08:35;;;;;;;63.70;47.05;;;;;;;;;;10102090;28;20036;-72
2024/01/27 01:13:27;;;;;;;57.20;40.85;;;;;;;;;;10103506;28;20041;-71
2024/01/27 01:18:18;;;;;;;52.92;39.70;;;;;;;;;;10102254;28;20041;-71
2024/01/27 01:23:11;;;;;;;50.70;38.35;;;;;;;;;;10102048;28;20098;-72
2024/01/27 01:28:03;;;;;;;54.75;39.47;;;;;;;;;;10103088;28;20095;-72
2024/01/27 01:32:55;;;;;;;57.75;39.05;;;;;;;;;;10103436;28;20114;-72
2024/01/27 01:37:50;;;;;;;48.67;36.15;;;;;;;;;;10100806;28;20102;-72
2024/01/27 01:42:42;;;;;;;45.15;33.72;;;;;;;;;;10102764;28;20383;-73
2024/01/27 01:47:34;;;;;;;39.28;30.08;;;;;;;;;;10101925;28;20102;-72
2024/01/27 01:52:26;;;;;;;49.42;36.53;;;;;;;;;;10102467;28;20056;-71
2024/01/27 01:57:18;;;;;;;43.92;32.08;;;;;;;;;;10100728;28;20040;-72
2024/01/27 02:02:10;;;;;;;41.22;30.00;;;;;;;;;;10102424;28;20448;-72
2024/01/27 02:07:02;;;;;;;38.95;28.52;;;;;;;;;;10101392;28;20143;-71
2024/01/27 02:11:54;;;;;;;39.10;26.98;;;;;;;;;;10102956;28;20079;-72
2024/01/27 02:16:46;;;;;;;36.05;26.98;;;;;;;;;;10109748;28;20048;-72
2024/01/27 02:21:38;;;;;;;42.92;30.85;;;;;;;;;;10110167;28;20132;-72
2024/01/27 02:26:30;;;;;;;34.70;27.50;;;;;;;;;;10111060;28;20527;-71
2024/01/27 02:31:22;;;;;;;40.47;29.20;;;;;;;;;;10108455;28;20131;-72
2024/01/27 02:36:14;;;;;;;36.17;24.92;;;;;;;;;;10109092;28;20467;-72
2024/01/27 02:41:06;;;;;;;38.60;25.38;;;;;;;;;;10108979;28;20052;-72
2024/01/27 02:45:58;;;;;;;35.88;25.40;;;;;;;;;;10109361;28;20048;-71
2024/01/27 02:50:50;;;;;;;39.75;28.88;;;;;;;;;;10107804;28;20476;-72
2024/01/27 02:55:42;;;;;;;39.78;29.52;;;;;;;;;;10109470;28;20087;-72
2024/01/27 03:00:35;;;;;;;34.05;25.05;;;;;;;;;;10107150;28;20099;-71
2024/01/27 03:05:27;;;;;;;38.75;28.23;;;;;;;;;;10109521;28;20044;-71
2024/01/27 03:10:20;;;;;;;39.30;26.17;;;;;;;;;;10107382;28;20135;-71
2024/01/27 03:15:12;;;;;;;41.63;26.15;;;;;;;;;;10108380;28;20445;-71
2024/01/27 03:20:05;;;;;;;32.45;24.58;;;;;;;;;;10106912;28;20064;-72
2024/01/27 03:25:00;;;;;;;36.78;25.02;;;;;;;;;;10107656;28;20053;-72
2024/01/27 03:29:52;;;;;;;30.48;23.58;;;;;;;;;;10107245;28;20063;-71
2024/01/27 03:34:47;;;;;;;27.95;21.40;;;;;;;;;;10107303;28;20037;-72
2024/01/27 03:39:42;;;;;;;30.45;22.88;;;;;;;;;;10106459;28;20041;-71
2024/01/27 03:44:34;;;;;;;28.17;23.05;;;;;;;;;;10106977;28;20048;-72
2024/01/27 03:49:26;;;;;;;31.52;21.88;;;;;;;;;;10104743;28;20110;-71
2024/01/27 03:54:18;;;;;;;29.40;22.20;;;;;;;;;;10106536;28;20075;-72
2024/01/27 03:59:11;;;;;;;25.38;21.70;;;;;;;;;;10106110;28;20114;-71
2024/01/27 04:04:03;;;;;;;28.48;21.90;;;;;;;;;;10106044;28;20045;-71
2024/01/27 04:08:55;;;;;;;28.63;22.35;;;;;;;;;;10105560;28;20048;-71
2024/01/27 04:13:50;;;;;;;26.42;21.75;;;;;;;;;;10105273;28;20041;-72
2024/01/27 04:18:42;;;;;;;30.75;23.13;;;;;;;;;;10106250;28;20490;-71
2024/01/27 04:23:34;;;;;;;27.40;23.02;;;;;;;;;;10105134;28;20412;-72
2024/01/27 04:28:26;;;;;;;29.95;24.50;;;;;;;;;;10105527;28;20051;-71
2024/01/27 04:33:18;;;;;;;33.95;24.42;;;;;;;;;;10105391;28;20348;-72
2024/01/27 04:38:13;;;;;;;32.92;25.40;;;;;;;;;;10102854;28;20073;-71
2024/01/27 04:43:05;;;;;;;33.25;23.25;;;;;;;;;;10105182;28;20049;-71
2024/01/27 04:47:57;;;;;;;28.00;22.60;;;;;;;;;;10103372;28;20041;-71
2024/01/27 04:52:49;;;;;;;27.92;22.60;;;;;;;;;;10105211;28;20060;-71
2024/01/27 04:57:41;;;;;;;31.30;24.77;;;;;;;;;;10104404;28;20049;-71
2024/01/27 05:02:33;;;;;;;30.73;23.20;;;;;;;;;;10102505;28;20048;-71
2024/01/27 05:07:25;;;;;;;32.20;26.77;;;;;;;;;;10101919;28;20156;-71
2024/01/27 05:12:17;;;;;;;31.35;25.45;;;;;;;;;;10103137;28;20041;-71
2024/01/27 05:17:09;;;;;;;31.17;22.90;;;;;;;;;;10103476;28;20078;-71
2024/01/27 05:22:01;;;;;;;30.60;22.88;;;;;;;;;;10103364;28;20045;-71
2024/01/27 05:26:53;;;;;;;31.27;24.67;;;;;;;;;;10102720;28;20103;-71
2024/01/27 05:31:45;;;;;;;34.95;26.30;;;;;;;;;;10102885;28;20539;-70
2024/01/27 05:36:36;;;;;;;36.10;28.33;;;;;;;;;;10101894;28;20041;-71
2024/01/27 05:41:28;;;;;;;37.00;28.92;;;;;;;;;;10102352;28;20080;-71
2024/01/27 05:46:21;;;;;;;46.67;37.00;;;;;;;;;;10101903;28;20060;-71
2024/01/27 05:51:13;;;;;;;45.17;36.92;;;;;;;;;;10102302;28;20053;-71
2024/01/27 05:56:05;;;;;;;31.95;25.10;;;;;;;;;;10103110;28;20049;-71
2024/01/27 06:00:57;;;;;;;42.28;30.95;;;;;;;;;;10100638;28;20087;-71
2024/01/27 06:05:49;;;;;;;36.55;26.08;;;;;;;;;;10101388;28;20379;-71
2024/01/27 06:10:40;;;;;;;36.55;26.17;;;;;;;;;;10102210;28;20055;-74
2024/01/27 06:15:32;;;;;;;50.67;38.70;;;;;;;;;;10101530;28;20041;-72
2024/01/27 06:20:25;;;;;;;46.35;35.10;;;;;;;;;;10103163;28;20041;-72
2024/01/27 06:25:17;;;;;;;38.75;27.08;;;;;;;;;;10101159;28;20048;-72
2024/01/27 06:30:10;;;;;;;43.47;32.25;;;;;;;;;;10101743;28;20041;-71
2024/01/27 06:35:03;;;;;;;33.25;26.45;;;;;;;;;;10093032;28;20051;-71
2024/01/27 06:39:55;;;;;;;38.50;27.38;;;;;;;;;;10100673;28;20099;-72
2024/01/27 06:44:47;;;;;;;43.55;34.05;;;;;;;;;;10101361;28;20489;-71
2024/01/27 06:49:39;;;;;;;32.63;25.77;;;;;;;;;;10100845;28;20048;-72
2024/01/27 06:54:31;;;;;;;24.52;20.88;;;;;;;;;;10101093;28;20037;-72
2024/01/27 06:59:23;;;;;;;29.60;23.35;;;;;;;;;;10103495;28;20132;-73
2024/01/27 07:04:15;;;;;;;75.05;57.67;;;;;;;;;;10108067;28;20071;-72
2024/01/27 07:09:09;;;;;;;84.88;63.67;;;;;;;;;;10107443;28;20423;-73
2024/01/27 07:14:01;;;;;;;48.13;34.65;;;;;;;;;;10107567;28;20360;-72
2024/01/27 07:18:53;;;;;;;49.25;35.58;;;;;;;;;;10106332;28;20116;-73
2024/01/27 07:23:45;;;;;;;47.72;30.92;;;;;;;;;;10104681;28;20044;-73
2024/01/27 07:28:38;;;;;;;34.72;27.15;;;;;;;;;;10106517;28;20049;-72
2024/01/27 07:33:30;;;;;;;46.40;36.75;;;;;;;;;;10102922;28;20371;-72
2024/01/27 07:38:22;;;;;;;76.53;60.83;;;;;;;;;;10101456;28;20057;-73
2024/01/27 07:43:14;;;;;;;35.35;27.27;;;;;;;;;;10105039;28;20143;-73
2024/01/27 07:48:07;;;;;;;38.60;28.05;;;;;;;;;;10106783;28;20052;-72
2024/01/27 07:52:59;;;;;;;36.33;20.60;;;;;;;;;;10095173;28;20468;-71
2024/01/27 07:57:51;;;;;;;29.25;22.33;;;;;;;;;;10104706;28;20042;-72
2024/01/27 08:02:43;;;;;;;39.83;27.80;;;;;;;;;;10095719;28;20049;-72
2024/01/27 08:07:35;;;;;;;34.88;27.52;;;;;;;;;;10101422;28;20045;-72
2024/01/27 08:12:27;;;;;;;46.95;35.33;;;;;;;;;;10098109;28;20087;-73
2024/01/27 08:17:19;;;;;;;54.60;40.20;;;;;;;;;;10089143;28;20391;-72
2024/01/27 08:22:11;;;;;;;61.17;47.20;;;;;;;;;;10071579;28;20502;-73
2024/01/27 08:27:03;;;;;;;68.18;46.58;;;;;;;;;;10095874;28;20446;-72
2024/01/27 08:31:54;;;;;;;59.80;47.58;;;;;;;;;;10095424;28;20037;-71
2024/01/27 08:36:47;;;;;;;63.72;50.97;;;;;;;;;;10103203;28;20479;-71
2024/01/27 08:41:39;;;;;;;68.82;49.55;;;;;;;;;;10070166;28;20132;-72
2024/01/27 08:46:30;;;;;;;71.03;51.72;;;;;;;;;;10078765;28;20136;-71
2024/01/27 08:51:22;;;;;;;61.30;47.47;;;;;;;;;;10067699;28;20547;-72
2024/01/27 08:56:16;;;;;;;62.83;49.53;;;;;;;;;;10096412;28;20069;-72
2024/01/27 09:01:08;;;;;;;65.93;47.00;;;;;;;;;;10105792;28;20424;-71
2024/01/27 09:06:00;;;;;;;53.42;41.90;;;;;;;;;;10099631;28;20052;-72
2024/01/27 09:10:53;;;;;;;62.33;44.72;;;;;;;;;;10094711;28;20112;-72
2024/01/27 09:15:45;;;;;;;56.42;44.08;;;;;;;;;;10090769;28;20345;-72
2024/01/27 09:20:37;;;;;;;51.45;41.20;;;;;;;;;;10101514;28;20416;-72
2024/01/27 09:25:31;;;;;;;56.08;41.90;;;;;;;;;;10084351;28;20041;-72
2024/01/27 09:30:23;;;;;;;48.83;39.38;;;;;;;;;;10090556;28;20057;-72
2024/01/27 09:35:15;;;;;;;45.50;35.75;;;;;;;;;;10101772;28;20422;-72
2024/01/27 09:40:08;;;;;;;52.65;40.55;;;;;;;;;;10103487;28;20087;-72
2024/01/27 09:45:02;;;;;;;47.75;38.05;;;;;;;;;;10104580;28;20041;-72
2024/01/27 09:49:54;;;;;;;51.75;39.80;;;;;;;;;;10085319;28;20045;-71
2024/01/27 09:54:46;;;;;;;52.15;39.20;;;;;;;;;;10096816;28;20041;-72
2024/01/27 09:59:43;;;;;;;55.53;39.63;;;;;;;;;;10093661;28;20040;-72
2024/01/27 10:04:35;;;;;;;43.35;33.65;;;;;;;;;;10098349;28;20053;-72
2024/01/27 10:09:27;;;;;;;41.10;32.80;;;;;;;;;;10088898;28;20060;-72
2024/01/27 10:14:19;;;;;;;45.17;34.55;;;;;;;;;;10090534;28;20048;-72
2024/01/27 10:19:19;;;;;;;34.13;30.10;;;;;;;;;;10091865;28;20451;-71
2024/01/27 10:24:12;;;;;;;39.30;31.38;;;;;;;;;;10079968;28;20135;-72
2024/01/27 10:29:04;;;;;;;38.55;32.15;;;;;;;;;;10090775;28;20040;-72
2024/01/27 10:33:57;;;;;;;40.97;33.38;;;;;;;;;;10093590;28;20140;-72
2024/01/27 10:38:49;;;;;;;38.20;31.98;;;;;;;;;;10110135;28;20057;-72
2024/01/27 10:43:41;;;;;;;48.00;34.20;;;;;;;;;;10110071;28;20344;-72
2024/01/27 10:48:37;;;;;;;47.58;34.83;;;;;;;;;;10107549;28;20092;-72
2024/01/27 10:53:31;;;;;;;43.33;33.97;;;;;;;;;;10107948;28;20115;-73
2024/01/27 10:58:26;;;;;;;42.08;34.75;;;;;;;;;;10107825;28;20051;-72
2024/01/27 11:03:19;;;;;;;42.40;31.52;;;;;;;;;;10107084;28;20463;-73
2024/01/27 11:08:12;;;;;;;41.22;29.52;;;;;;;;;;10107574;28;20056;-73
2024/01/27 11:13:05;;;;;;;37.47;31.60;;;;;;;;;;10108109;28;20045;-73
2024/01/27 11:17:59;;;;;;;38.15;32.90;;;;;;;;;;10105448;28;20136;-73
2024/01/27 11:22:52;;;;;;;43.25;32.72;;;;;;;;;;10108948;28;20099;-73
2024/01/27 11:27:48;;;;;;;44.47;34.28;;;;;;;;;;10105491;28;20041;-73
2024/01/27 11:32:40;;;;;;;35.90;30.85;;;;;;;;;;10104600;28;20048;-72
2024/01/27 11:37:33;;;;;;;39.13;32.30;;;;;;;;;;10106188;28;20074;-73
2024/01/27 11:42:25;;;;;;;46.60;33.97;;;;;;;;;;10107041;28;20124;-73
2024/01/27 11:47:19;;;;;;;43.38;35.40;;;;;;;;;;10105281;28;20140;-69
2024/01/27 11:52:11;;;;;;;39.47;34.83;;;;;;;;;;10105272;28;20044;-72
2024/01/27 11:57:03;;;;;;;44.30;37.30;;;;;;;;;;10106189;28;20044;-72
2024/01/27 12:01:55;;;;;;;40.90;34.55;;;;;;;;;;10106141;28;20080;-72
2024/01/27 12:06:47;;;;;;;46.25;36.80;;;;;;;;;;10104897;28;20148;-72
2024/01/27 12:11:42;;;;;;;44.55;39.33;;;;;;;;;;10104214;28;20033;-72
2024/01/27 12:16:35;;;;;;;44.53;39.85;;;;;;;;;;10104083;28;20044;-72
2024/01/27 12:21:28;;;;;;;49.95;40.58;;;;;;;;;;10104941;28;20048;-72
2024/01/27 12:26:22;;;;;;;43.97;37.20;;;;;;;;;;10104251;28;20110;-72
2024/01/27 12:31:16;;;;;;;40.80;35.40;;;;;;;;;;10104804;28;20044;-72
2024/01/27 12:36:10;;;;;;;40.10;33.78;;;;;;;;;;10103153;28;20148;-72
2024/01/27 12:41:02;;;;;;;39.45;32.30;;;;;;;;;;10096178;28;20076;-72
2024/01/27 12:45:54;;;;;;;40.30;35.10;;;;;;;;;;10102640;28;20048;-73
2024/01/27 12:50:46;;;;;;;38.80;33.70;;;;;;;;;;10100752;28;20537;-73
2024/01/27 12:55:39;;;;;;;39.28;30.92;;;;;;;;;;10103323;28;20041;-74
2024/01/27 13:00:31;;;;;;;39.90;34.22;;;;;;;;;;10100737;28;20041;-73
2024/01/27 13:05:23;;;;;;;32.92;29.40;;;;;;;;;;10102806;28;20107;-73
2024/01/27 13:10:15;;;;;;;29.65;25.50;;;;;;;;;;10101894;28;20094;-73
2024/01/27 13:15:07;;;;;;;23.23;20.67;;;;;;;;;;10103251;28;20063;-73
2024/01/27 13:20:00;;;;;;;26.48;23.73;;;;;;;;;;10102180;28;20040;-72
2024/01/27 13:24:52;;;;;;;26.23;23.38;;;;;;;;;;10103150;28;20418;-74
2024/01/27 13:29:45;;;;;;;32.92;27.65;;;;;;;;;;10100920;28;20041;-73
2024/01/27 13:34:37;;;;;;;37.05;27.90;;;;;;;;;;10101998;28;20049;-72
2024/01/27 13:39:30;;;;;;;33.13;28.27;;;;;;;;;;10100676;28;20053;-72
2024/01/27 13:44:23;;;;;;;29.27;25.90;;;;;;;;;;10102418;28;20075;-72
2024/01/27 13:49:15;;;;;;;33.83;28.75;;;;;;;;;;10097621;28;20051;-73
2024/01/27 13:54:09;;;;;;;37.03;29.55;;;;;;;;;;10098060;28;20049;-72
2024/01/27 13:59:04;;;;;;;32.92;27.48;;;;;;;;;;10093926;28;20091;-72
2024/01/27 14:03:56;;;;;;;36.42;28.30;;;;;;;;;;10092343;28;20079;-74
2024/01/27 14:08:48;;;;;;;33.13;27.92;;;;;;;;;;10100875;28;20037;-74
2024/01/27 14:13:43;;;;;;;35.58;29.02;;;;;;;;;;10101840;28;20087;-72
2024/01/27 14:18:35;;;;;;;33.90;28.75;;;;;;;;;;10101621;28;20106;-73
2024/01/27 14:23:28;;;;;;;35.88;30.45;;;;;;;;;;10101593;28;20436;-72
2024/01/27 14:28:21;;;;;;;35.85;30.00;;;;;;;;;;10098289;28;20048;-73
2024/01/27 14:33:15;;;;;;;34.47;27.83;;;;;;;;;;10092640;28;20041;-73
2024/01/27 14:38:08;;;;;;;41.60;31.17;;;;;;;;;;10101297;28;20052;-73
2024/01/27 14:43:08;;;;;;;40.90;34.45;;;;;;;;;;10100872;28;20099;-73
2024/01/27 14:48:00;;;;;;;39.30;33.97;;;;;;;;;;10101089;28;20514;-73
2024/01/27 14:52:55;;;;;;;52.50;36.83;;;;;;;;;;10100246;28;20356;-73
2024/01/27 14:57:47;;;;;;;44.30;36.35;;;;;;;;;;10101274;28;20494;-73
2024/01/27 15:02:39;;;;;;;51.03;38.20;;;;;;;;;;10099051;28;20419;-73
2024/01/27 15:07:31;;;;;;;45.63;35.38;;;;;;;;;;10102148;28;20045;-73
2024/01/27 15:12:25;;;;;;;45.67;34.30;;;;;;;;;;10099339;28;20127;-73
2024/01/27 15:17:18;;;;;;;42.63;34.55;;;;;;;;;;10100036;28;20037;-73
2024/01/27 15:22:10;;;;;;;46.30;35.70;;;;;;;;;;10106326;28;20045;-75
2024/01/27 15:27:03;;;;;;;44.05;31.83;;;;;;;;;;10109250;28;20041;-74
2024/01/27 15:32:02;;;;;;;45.13;34.80;;;;;;;;;;10104866;28;20203;-73
2024/01/27 15:36:54;;;;;;;39.78;30.83;;;;;;;;;;10107178;28;20049;-73
2024/01/27 15:41:46;;;;;;;34.80;28.02;;;;;;;;;;10107094;28;20082;-74
2024/01/27 15:46:38;;;;;;;40.60;31.77;;;;;;;;;;10103559;28;20067;-74
2024/01/27 15:51:30;;;;;;;39.88;31.85;;;;;;;;;;10104215;28;20170;-74
2024/01/27 15:56:22;;;;;;;54.38;40.10;;;;;;;;;;10106235;28;20049;-74
2024/01/27 16:01:15;;;;;;;49.00;35.58;;;;;;;;;;10105182;28;20119;-73
2024/01/27 16:06:07;;;;;;;50.38;38.00;;;;;;;;;;10105228;28;20136;-73
2024/01/27 16:11:00;;;;;;;40.47;31.75;;;;;;;;;;10103403;28;20040;-73
2024/01/27 16:15:52;;;;;;;47.92;38.53;;;;;;;;;;10105375;28;20107;-73
2024/01/27 16:20:49;;;;;;;53.17;44.88;;;;;;;;;;10103984;28;20182;-73
2024/01/27 16:25:41;;;;;;;81.50;57.38;;;;;;;;;;10086789;28;20095;-73
2024/01/27 16:30:33;;;;;;;60.65;44.85;;;;;;;;;;10090999;28;20041;-73
2024/01/27 16:35:26;;;;;;;48.97;38.08;;;;;;;;;;10097218;28;20375;-73
2024/01/27 16:40:18;;;;;;;72.65;57.88;;;;;;;;;;10078699;28;20384;-73
2024/01/27 16:45:11;;;;;;;86.82;69.85;;;;;;;;;;10082745;28;20463;-73
2024/01/27 16:50:03;;;;;;;85.13;67.72;;;;;;;;;;10102601;28;20140;-73
2024/01/27 16:54:56;;;;;;;73.82;55.08;;;;;;;;;;10091643;28;20148;-73
2024/01/27 16:59:48;;;;;;;77.85;60.70;;;;;;;;;;10092731;28;20103;-73
2024/01/27 17:04:40;;;;;;;81.07;65.18;;;;;;;;;;10098213;28;20048;-73
2024/01/27 17:09:32;;;;;;;80.88;63.15;;;;;;;;;;10086102;28;20127;-73
2024/01/27 17:14:26;;;;;;;68.80;56.42;;;;;;;;;;10085943;28;20107;-73
2024/01/27 17:19:18;;;;;;;90.90;72.38;;;;;;;;;;10078395;28;20619;-73
2024/01/27 17:24:10;;;;;;;81.10;62.08;;;;;;;;;;10096272;28;20045;-73
2024/01/27 17:29:02;;;;;;;79.57;63.22;;;;;;;;;;10079118;28;20642;-73
2024/01/27 17:33:54;;;;;;;93.10;73.10;;;;;;;;;;10089153;28;20044;-73
2024/01/27 17:38:47;;;;;;;94.43;73.13;;;;;;;;;;10089641;28;20077;-73
2024/01/27 17:43:38;;;;;;;106.75;80.45;;;;;;;;;;10101892;28;20044;-75
2024/01/27 17:48:30;;;;;;;105.68;76.65;;;;;;;;;;10095549;28;20053;-75
2024/01/27 17:53:22;;;;;;;112.32;83.45;;;;;;;;;;10075335;28;20077;-72
2024/01/27 17:58:15;;;;;;;106.80;80.72;;;;;;;;;;10099473;28;20054;-75
2024/01/27 18:03:07;;;;;;;215.15;85.55;;;;;;;;;;10087992;28;20119;-74
2024/01/27 18:08:00;;;;;;;196.23;83.65;;;;;;;;;;10103724;28;20121;-73
2024/01/27 18:12:51;;;;;;;175.70;89.93;;;;;;;;;;10077602;28;20521;-73
2024/01/27 18:17:43;;;;;;;104.55;74.55;;;;;;;;;;10103050;28;20622;-74
2024/01/27 18:22:35;;;;;;;104.43;78.10;;;;;;;;;;10103566;28;20091;-73
2024/01/27 18:27:27;;;;;;;112.65;84.07;;;;;;;;;;10102720;28;20049;-73
2024/01/27 18:32:19;;;;;;;123.20;96.82;;;;;;;;;;10093874;28;20091;-73
2024/01/27 18:37:11;;;;;;;93.60;73.45;;;;;;;;;;10094305;28;20111;-73
2024/01/27 18:42:04;;;;;;;197.65;92.70;;;;;;;;;;10081650;28;20498;-73
2024/01/27 18:46:57;;;;;;;207.30;99.80;;;;;;;;;;10090142;28;20132;-73
2024/01/27 18:51:49;;;;;;;261.38;110.38;;;;;;;;;;10082508;28;20041;-73
2024/01/27 18:56:42;;;;;;;286.23;110.90;;;;;;;;;;10097587;28;20059;-74
2024/01/27 19:01:36;;;;;;;187.50;87.22;;;;;;;;;;10104688;28;20041;-74
2024/01/27 19:06:30;;;;;;;267.13;99.20;;;;;;;;;;10105256;28;20073;-73
2024/01/27 19:11:22;;;;;;;276.23;108.80;;;;;;;;;;10108051;28;20044;-73
2024/01/27 19:16:14;;;;;;;277.77;115.53;;;;;;;;;;10107567;28;20140;-74
2024/01/27 19:21:06;;;;;;;274.30;110.80;;;;;;;;;;10107210;28;21736;-74
2024/01/27 19:25:58;;;;;;;267.55;116.47;;;;;;;;;;10107444;28;20135;-74
2024/01/27 19:30:50;;;;;;;288.45;114.55;;;;;;;;;;10106857;28;20049;-74
2024/01/27 19:35:42;;;;;;;237.00;103.72;;;;;;;;;;10106083;28;20419;-74
2024/01/27 19:40:35;;;;;;;281.48;128.85;;;;;;;;;;10107314;28;20045;-73
2024/01/27 19:45:27;;;;;;;288.15;131.00;;;;;;;;;;10105419;28;20053;-73
2024/01/27 19:50:19;;;;;;;438.55;128.45;;;;;;;;;;10105797;28;20384;-73
2024/01/27 19:55:12;;;;;;;355.40;114.13;;;;;;;;;;10101891;28;20049;-73
2024/01/27 20:00:04;;;;;;;244.70;105.47;;;;;;;;;;10106201;28;20143;-74
2024/01/27 20:04:57;;;;;;;257.58;103.07;;;;;;;;;;10102962;28;20091;-73
2024/01/27 20:09:50;;;;;;;259.95;103.53;;;;;;;;;;10103261;28;20045;-74
2024/01/27 20:14:42;;;;;;;253.95;109.85;;;;;;;;;;10106890;28;20033;-74
2024/01/27 20:19:34;;;;;;;233.40;108.05;;;;;;;;;;10103620;28;20041;-73
2024/01/27 20:24:26;;;;;;;231.07;110.43;;;;;;;;;;10104742;28;20048;-73
2024/01/27 20:29:18;;;;;;;224.75;108.28;;;;;;;;;;10104705;28;20208;-74
2024/01/27 20:34:10;;;;;;;242.50;105.10;;;;;;;;;;10104602;28;20045;-74
2024/01/27 20:39:03;;;;;;;175.82;99.43;;;;;;;;;;10082908;28;20045;-74
2024/01/27 20:43:55;;;;;;;146.65;90.18;;;;;;;;;;10107146;28;20340;-73
2024/01/27 20:48:47;;;;;;;126.88;86.20;;;;;;;;;;10093459;28;20436;-74
2024/01/27 20:53:39;;;;;;;134.77;82.53;;;;;;;;;;10089831;28;20122;-73
2024/01/27 20:58:31;;;;;;;135.07;75.13;;;;;;;;;;10106720;28;20055;-74
2024/01/27 21:03:23;;;;;;;86.00;68.20;;;;;;;;;;10105023;28;20037;-73
2024/01/27 21:08:16;;;;;;;102.60;78.00;;;;;;;;;;10103354;28;20107;-73
2024/01/27 21:13:08;;;;;;;113.75;85.55;;;;;;;;;;10103560;28;20049;-73
2024/01/27 21:18:01;;;;;;;97.15;71.22;;;;;;;;;;10102849;28;20531;-73
2024/01/27 21:22:53;;;;;;;76.80;60.05;;;;;;;;;;10102608;28;20072;-73
2024/01/27 21:27:45;;;;;;;171.95;84.35;;;;;;;;;;10103200;28;20048;-73
2024/01/27 21:32:37;;;;;;;209.82;81.95;;;;;;;;;;10103085;28;20495;-73
2024/01/27 21:37:29;;;;;;;203.48;78.63;;;;;;;;;;10101458;28;20399;-73
2024/01/27 21:42:21;;;;;;;200.50;73.97;;;;;;;;;;10099875;28;20344;-73
2024/01/27 21:47:13;;;;;;;134.40;79.85;;;;;;;;;;10100649;28;20175;-73
2024/01/27 21:52:05;;;;;;;157.43;80.95;;;;;;;;;;10102095;28;20036;-73
2024/01/27 21:57:00;;;;;;;143.50;79.78;;;;;;;;;;10101537;28;20044;-73
2024/01/27 22:01:52;;;;;;;155.30;83.15;;;;;;;;;;10102247;28;20048;-73
2024/01/27 22:06:44;;;;;;;179.07;84.55;;;;;;;;;;10101509;28;20068;-73
2024/01/27 22:11:37;;;;;;;151.55;82.95;;;;;;;;;;10101638;28;20083;-73
2024/01/27 22:16:29;;;;;;;198.88;80.72;;;;;;;;;;10101710;28;20098;-74
2024/01/27 22:21:21;;;;;;;156.68;88.97;;;;;;;;;;10100715;28;20047;-73
2024/01/27 22:26:13;;;;;;;164.48;91.97;;;;;;;;;;10101555;28;20057;-73
2024/01/27 22:31:04;;;;;;;164.38;98.97;;;;;;;;;;10104390;28;20055;-73
2024/01/27 22:35:56;;;;;;;150.32;91.68;;;;;;;;;;10110795;28;20044;-73
2024/01/27 22:40:48;;;;;;;205.65;90.30;;;;;;;;;;10106973;28;20045;-73
2024/01/27 22:45:40;;;;;;;165.27;94.53;;;;;;;;;;10108668;28;20085;-76
2024/01/27 22:50:33;;;;;;;173.23;90.05;;;;;;;;;;10108801;28;20037;-79
2024/01/27 22:55:24;;;;;;;180.65;97.28;;;;;;;;;;10109191;28;20471;-79
2024/01/27 23:00:32;;;;;;;180.90;87.03;;;;;;;;;;10106845;28;20037;-78
2024/01/27 23:05:25;;;;;;;168.30;90.53;;;;;;;;;;10092795;28;20049;-79
2024/01/27 23:10:17;;;;;;;177.07;89.65;;;;;;;;;;10107407;28;20044;-77
2024/01/27 23:15:10;;;;;;;155.63;88.78;;;;;;;;;;10107533;28;20110;-77
2024/01/27 23:20:03;;;;;;;227.95;86.47;;;;;;;;;;10106636;28;20527;-77
2024/01/27 23:24:55;;;;;;;218.95;92.78;;;;;;;;;;10104228;28;20098;-77
2024/01/27 23:29:47;;;;;;;179.45;93.93;;;;;;;;;;10106844;28;20048;-77
2024/01/27 23:34:40;;;;;;;190.25;92.30;;;;;;;;;;10108324;28;20057;-76
2024/01/27 23:39:32;;;;;;;188.98;89.72;;;;;;;;;;10093546;28;20460;-77
2024/01/27 23:44:24;;;;;;;190.32;82.40;;;;;;;;;;10072163;28;20034;-77
2024/01/27 23:49:16;;;;;;;173.68;82.00;;;;;;;;;;10079691;28;20049;-77
2024/01/27 23:54:12;;;;;;;143.70;81.07;;;;;;;;;;10099848;28;20041;-77
2024/01/27 23:59:06;;;;;;;123.10;71.35;;;;;;;;;;10096149;28;20427;-77
